Allons, Tennessee
Current Conditions -  °F | °C
As of 8:15 PM on Sunday 25 Jan 2015 (Local Time) from KSRB Reporting Station
Scattered Clouds Scattered Clouds  
Wind Chill:   Ceiling: Unl
Heat Index:   Visibility: 10mi
Dew Point:   Wind: 6mph
Humidity: 87%   Direction: 240°WSW
Pressure: 29.7"   Gusts: NA
Location:  36.44°N, 85.34°W
Report Text: KSRB 260215Z AUTO 24005KT 10SM FEW025 SCT035 07/05 A2970 RMK
Loading
Personal Weather Stations






























Interactive Weather Map New forecast layout! Learn more

10-Day Weather Forecast

Advertisements
Track Severe Weather on mobile